sensor_id;sensor_type;location;lat;lon;timestamp;temperature;humidity
37678;DHT22;23517;50.390;8.616;2023-10-19T00:00:41;9.90;1.00
37678;DHT22;23517;50.390;8.616;2023-10-19T00:03:11;9.90;1.00
37678;DHT22;23517;50.390;8.616;2023-10-19T00:05:39;9.80;1.00
37678;DHT22;23517;50.390;8.616;2023-10-19T00:08:06;9.90;1.00
37678;DHT22;23517;50.390;8.616;2023-10-19T00:10:40;9.90;1.00
37678;DHT22;23517;50.390;8.616;2023-10-19T00:13:11;9.90;1.00
37678;DHT22;23517;50.390;8.616;2023-10-19T00:15:39;9.90;1.00
37678;DHT22;23517;50.390;8.616;2023-10-19T00:18:07;9.90;1.00
37678;DHT22;23517;50.390;8.616;2023-10-19T00:20:44;9.90;1.00
37678;DHT22;23517;50.390;8.616;2023-10-19T00:23:12;9.90;1.00
37678;DHT22;23517;50.390;8.616;2023-10-19T00:25:50;9.90;1.00
37678;DHT22;23517;50.390;8.616;2023-10-19T00:28:18;10.00;1.00
37678;DHT22;23517;50.390;8.616;2023-10-19T00:30:45;9.90;1.00
37678;DHT22;23517;50.390;8.616;2023-10-19T00:33:14;9.90;1.00
37678;DHT22;23517;50.390;8.616;2023-10-19T00:35:50;9.90;1.00
37678;DHT22;23517;50.390;8.616;2023-10-19T00:38:35;9.90;1.00
37678;DHT22;23517;50.390;8.616;2023-10-19T00:41:02;9.90;1.00
37678;DHT22;23517;50.390;8.616;2023-10-19T00:43:41;9.90;1.00
37678;DHT22;23517;50.390;8.616;2023-10-19T00:46:20;9.90;1.00
37678;DHT22;23517;50.390;8.616;2023-10-19T00:48:53;10.00;1.00
37678;DHT22;23517;50.390;8.616;2023-10-19T00:51:25;10.00;1.00
37678;DHT22;23517;50.390;8.616;2023-10-19T00:54:08;9.90;1.00
37678;DHT22;23517;50.390;8.616;2023-10-19T00:56:46;9.90;1.00
37678;DHT22;23517;50.390;8.616;2023-10-19T00:59:19;10.00;1.00
37678;DHT22;23517;50.390;8.616;2023-10-19T01:01:57;10.00;1.00
37678;DHT22;23517;50.390;8.616;2023-10-19T01:04:48;10.00;1.00
37678;DHT22;23517;50.390;8.616;2023-10-19T01:07:32;10.00;1.00
37678;DHT22;23517;50.390;8.616;2023-10-19T01:10:07;10.10;1.00
37678;DHT22;23517;50.390;8.616;2023-10-19T01:12:34;10.10;1.00
37678;DHT22;23517;50.390;8.616;2023-10-19T01:15:17;10.10;1.00
37678;DHT22;23517;50.390;8.616;2023-10-19T01:17:47;10.10;1.00
37678;DHT22;23517;50.390;8.616;2023-10-19T01:20:37;10.20;1.00
37678;DHT22;23517;50.390;8.616;2023-10-19T01:23:21;10.30;1.00
37678;DHT22;23517;50.390;8.616;2023-10-19T01:28:37;10.30;1.00
37678;DHT22;23517;50.390;8.616;2023-10-19T01:33:43;10.40;1.00
37678;DHT22;23517;50.390;8.616;2023-10-19T01:36:11;10.40;1.00
37678;DHT22;23517;50.390;8.616;2023-10-19T01:38:41;10.50;1.00
37678;DHT22;23517;50.390;8.616;2023-10-19T01:41:09;10.50;1.00
37678;DHT22;23517;50.390;8.616;2023-10-19T01:43:54;10.50;1.00
37678;DHT22;23517;50.390;8.616;2023-10-19T01:46:22;10.50;1.00
37678;DHT22;23517;50.390;8.616;2023-10-19T01:48:54;10.50;1.00
37678;DHT22;23517;50.390;8.616;2023-10-19T01:51:25;10.60;1.00
37678;DHT22;23517;50.390;8.616;2023-10-19T01:53:54;10.60;1.00
37678;DHT22;23517;50.390;8.616;2023-10-19T01:56:24;10.70;1.00
37678;DHT22;23517;50.390;8.616;2023-10-19T01:58:51;10.70;1.00
37678;DHT22;23517;50.390;8.616;2023-10-19T02:01:19;10.80;1.00
37678;DHT22;23517;50.390;8.616;2023-10-19T02:03:52;10.70;1.00
37678;DHT22;23517;50.390;8.616;2023-10-19T02:06:22;10.70;1.00
37678;DHT22;23517;50.390;8.616;2023-10-19T02:08:57;10.70;1.00
37678;DHT22;23517;50.390;8.616;2023-10-19T02:11:36;10.70;1.00
37678;DHT22;23517;50.390;8.616;2023-10-19T02:14:09;10.80;1.00
37678;DHT22;23517;50.390;8.616;2023-10-19T02:16:43;10.80;1.00
37678;DHT22;23517;50.390;8.616;2023-10-19T02:19:14;10.80;1.00
37678;DHT22;23517;50.390;8.616;2023-10-19T02:21:41;10.80;1.00
37678;DHT22;23517;50.390;8.616;2023-10-19T02:24:09;10.80;1.00
37678;DHT22;23517;50.390;8.616;2023-10-19T02:26:45;10.80;1.00
37678;DHT22;23517;50.390;8.616;2023-10-19T02:29:13;10.80;1.00
37678;DHT22;23517;50.390;8.616;2023-10-19T02:31:41;10.80;1.00
37678;DHT22;23517;50.390;8.616;2023-10-19T02:34:09;10.80;1.00
37678;DHT22;23517;50.390;8.616;2023-10-19T02:36:38;10.80;1.00
37678;DHT22;23517;50.390;8.616;2023-10-19T02:39:08;10.80;1.00
37678;DHT22;23517;50.390;8.616;2023-10-19T02:41:42;10.80;1.00
37678;DHT22;23517;50.390;8.616;2023-10-19T02:44:12;10.80;1.00
37678;DHT22;23517;50.390;8.616;2023-10-19T02:46:48;10.90;1.00
37678;DHT22;23517;50.390;8.616;2023-10-19T02:49:21;10.90;1.00
37678;DHT22;23517;50.390;8.616;2023-10-19T02:51:50;10.90;1.00
37678;DHT22;23517;50.390;8.616;2023-10-19T02:54:20;11.00;1.00
37678;DHT22;23517;50.390;8.616;2023-10-19T02:56:51;10.90;1.00
37678;DHT22;23517;50.390;8.616;2023-10-19T02:59:21;10.90;1.00
37678;DHT22;23517;50.390;8.616;2023-10-19T03:01:57;10.90;1.00
37678;DHT22;23517;50.390;8.616;2023-10-19T03:04:33;10.90;1.00
37678;DHT22;23517;50.390;8.616;2023-10-19T03:07:03;10.90;1.00
37678;DHT22;23517;50.390;8.616;2023-10-19T03:09:30;11.00;1.00
37678;DHT22;23517;50.390;8.616;2023-10-19T03:12:02;10.90;1.00
37678;DHT22;23517;50.390;8.616;2023-10-19T03:14:32;10.90;1.00
37678;DHT22;23517;50.390;8.616;2023-10-19T03:16:59;10.90;1.00
37678;DHT22;23517;50.390;8.616;2023-10-19T03:19:31;11.00;1.00
37678;DHT22;23517;50.390;8.616;2023-10-19T03:21:58;11.00;1.00
37678;DHT22;23517;50.390;8.616;2023-10-19T03:24:27;11.00;1.00
37678;DHT22;23517;50.390;8.616;2023-10-19T03:27:12;11.00;1.00
37678;DHT22;23517;50.390;8.616;2023-10-19T03:29:51;11.00;1.00
37678;DHT22;23517;50.390;8.616;2023-10-19T03:32:22;11.00;1.00
37678;DHT22;23517;50.390;8.616;2023-10-19T03:34:55;11.00;1.00
37678;DHT22;23517;50.390;8.616;2023-10-19T03:37:23;11.00;1.00
37678;DHT22;23517;50.390;8.616;2023-10-19T03:39:52;11.00;1.00
37678;DHT22;23517;50.390;8.616;2023-10-19T03:42:23;11.10;1.00
37678;DHT22;23517;50.390;8.616;2023-10-19T03:44:53;11.10;1.00
37678;DHT22;23517;50.390;8.616;2023-10-19T03:47:23;11.10;1.00
37678;DHT22;23517;50.390;8.616;2023-10-19T03:50:05;11.10;1.00
37678;DHT22;23517;50.390;8.616;2023-10-19T03:52:37;11.10;1.00
37678;DHT22;23517;50.390;8.616;2023-10-19T03:55:07;11.10;1.00
37678;DHT22;23517;50.390;8.616;2023-10-19T03:57:38;11.20;1.00
37678;DHT22;23517;50.390;8.616;2023-10-19T04:00:08;11.20;1.00
37678;DHT22;23517;50.390;8.616;2023-10-19T04:02:41;11.10;1.00
37678;DHT22;23517;50.390;8.616;2023-10-19T04:05:09;11.20;1.00
37678;DHT22;23517;50.390;8.616;2023-10-19T04:07:38;11.20;1.00
37678;DHT22;23517;50.390;8.616;2023-10-19T04:10:05;11.10;1.00
37678;DHT22;23517;50.390;8.616;2023-10-19T04:12:37;11.10;1.00
37678;DHT22;23517;50.390;8.616;2023-10-19T04:15:10;11.10;1.00
37678;DHT22;23517;50.390;8.616;2023-10-19T04:17:44;11.10;1.00
37678;DHT22;23517;50.390;8.616;2023-10-19T04:20:14;11.10;1.00
37678;DHT22;23517;50.390;8.616;2023-10-19T04:22:49;11.20;1.00
37678;DHT22;23517;50.390;8.616;2023-10-19T04:25:17;11.10;1.00
37678;DHT22;23517;50.390;8.616;2023-10-19T04:27:53;11.10;1.00
37678;DHT22;23517;50.390;8.616;2023-10-19T04:30:20;11.10;1.00
37678;DHT22;23517;50.390;8.616;2023-10-19T04:32:50;11.10;1.00
37678;DHT22;23517;50.390;8.616;2023-10-19T04:35:17;11.10;1.00
37678;DHT22;23517;50.390;8.616;2023-10-19T04:37:54;11.20;1.00
37678;DHT22;23517;50.390;8.616;2023-10-19T04:40:21;11.20;1.00
37678;DHT22;23517;50.390;8.616;2023-10-19T04:42:52;11.20;1.00
37678;DHT22;23517;50.390;8.616;2023-10-19T04:45:20;11.10;1.00
37678;DHT22;23517;50.390;8.616;2023-10-19T04:47:50;11.20;1.00
37678;DHT22;23517;50.390;8.616;2023-10-19T04:50:20;11.20;1.00
37678;DHT22;23517;50.390;8.616;2023-10-19T04:52:47;11.10;1.00
37678;DHT22;23517;50.390;8.616;2023-10-19T04:55:14;11.20;1.00
37678;DHT22;23517;50.390;8.616;2023-10-19T04:57:41;11.20;1.00
37678;DHT22;23517;50.390;8.616;2023-10-19T05:00:08;11.20;1.00
37678;DHT22;23517;50.390;8.616;2023-10-19T05:02:40;11.20;1.00
37678;DHT22;23517;50.390;8.616;2023-10-19T05:05:08;11.20;1.00
37678;DHT22;23517;50.390;8.616;2023-10-19T05:07:35;11.20;1.00
37678;DHT22;23517;50.390;8.616;2023-10-19T05:10:02;11.20;1.00
37678;DHT22;23517;50.390;8.616;2023-10-19T05:12:29;11.20;1.00
37678;DHT22;23517;50.390;8.616;2023-10-19T05:14:56;11.20;1.00
37678;DHT22;23517;50.390;8.616;2023-10-19T05:17:22;11.20;1.00
37678;DHT22;23517;50.390;8.616;2023-10-19T05:19:50;11.10;1.00
37678;DHT22;23517;50.390;8.616;2023-10-19T05:22:16;11.10;1.00
37678;DHT22;23517;50.390;8.616;2023-10-19T05:24:43;11.10;1.00
37678;DHT22;23517;50.390;8.616;2023-10-19T05:27:12;11.10;1.00
37678;DHT22;23517;50.390;8.616;2023-10-19T05:29:42;11.10;1.00
37678;DHT22;23517;50.390;8.616;2023-10-19T05:32:09;11.10;1.00
37678;DHT22;23517;50.390;8.616;2023-10-19T05:34:36;11.10;1.00
37678;DHT22;23517;50.390;8.616;2023-10-19T05:37:03;11.10;1.00
37678;DHT22;23517;50.390;8.616;2023-10-19T05:39:31;11.10;1.00
37678;DHT22;23517;50.390;8.616;2023-10-19T05:42:00;11.00;1.00
37678;DHT22;23517;50.390;8.616;2023-10-19T05:44:28;11.10;1.00
37678;DHT22;23517;50.390;8.616;2023-10-19T05:46:57;11.10;1.00
37678;DHT22;23517;50.390;8.616;2023-10-19T05:49:24;11.10;1.00
37678;DHT22;23517;50.390;8.616;2023-10-19T05:51:52;11.10;1.00
37678;DHT22;23517;50.390;8.616;2023-10-19T05:54:19;11.10;1.00
37678;DHT22;23517;50.390;8.616;2023-10-19T05:56:45;11.10;1.00
37678;DHT22;23517;50.390;8.616;2023-10-19T05:59:12;11.10;1.00
37678;DHT22;23517;50.390;8.616;2023-10-19T06:01:39;11.10;1.00
37678;DHT22;23517;50.390;8.616;2023-10-19T06:04:08;11.10;1.00
37678;DHT22;23517;50.390;8.616;2023-10-19T06:06:34;11.10;1.00
37678;DHT22;23517;50.390;8.616;2023-10-19T06:09:02;11.10;1.00
37678;DHT22;23517;50.390;8.616;2023-10-19T06:11:31;11.10;1.00
37678;DHT22;23517;50.390;8.616;2023-10-19T06:13:59;11.00;1.00
37678;DHT22;23517;50.390;8.616;2023-10-19T06:16:26;11.00;1.00
37678;DHT22;23517;50.390;8.616;2023-10-19T06:18:54;11.00;1.00
37678;DHT22;23517;50.390;8.616;2023-10-19T06:21:21;11.00;1.00
37678;DHT22;23517;50.390;8.616;2023-10-19T06:23:49;11.00;1.00
37678;DHT22;23517;50.390;8.616;2023-10-19T06:26:17;11.10;1.00
37678;DHT22;23517;50.390;8.616;2023-10-19T06:28:44;11.10;1.00
37678;DHT22;23517;50.390;8.616;2023-10-19T06:31:11;11.10;1.00
37678;DHT22;23517;50.390;8.616;2023-10-19T06:33:38;11.10;1.00
37678;DHT22;23517;50.390;8.616;2023-10-19T06:36:08;11.20;1.00
37678;DHT22;23517;50.390;8.616;2023-10-19T06:38:35;11.20;1.00
37678;DHT22;23517;50.390;8.616;2023-10-19T06:41:10;11.20;1.00
37678;DHT22;23517;50.390;8.616;2023-10-19T06:43:39;11.20;1.00
37678;DHT22;23517;50.390;8.616;2023-10-19T06:46:06;11.30;1.00
37678;DHT22;23517;50.390;8.616;2023-10-19T06:48:34;11.30;1.00
37678;DHT22;23517;50.390;8.616;2023-10-19T06:51:02;11.40;1.00
37678;DHT22;23517;50.390;8.616;2023-10-19T06:53:28;11.40;1.00
37678;DHT22;23517;50.390;8.616;2023-10-19T06:55:55;11.50;1.00
37678;DHT22;23517;50.390;8.616;2023-10-19T06:58:22;11.50;1.00
37678;DHT22;23517;50.390;8.616;2023-10-19T07:00:53;11.60;1.00
37678;DHT22;23517;50.390;8.616;2023-10-19T07:03:39;11.70;1.00
37678;DHT22;23517;50.390;8.616;2023-10-19T07:06:06;11.80;1.00
37678;DHT22;23517;50.390;8.616;2023-10-19T07:08:42;12.00;1.00
37678;DHT22;23517;50.390;8.616;2023-10-19T07:11:10;12.00;1.00
37678;DHT22;23517;50.390;8.616;2023-10-19T07:13:37;12.20;1.00
37678;DHT22;23517;50.390;8.616;2023-10-19T07:16:04;12.20;1.00
37678;DHT22;23517;50.390;8.616;2023-10-19T07:18:31;12.30;1.00
37678;DHT22;23517;50.390;8.616;2023-10-19T07:20:58;12.40;1.00
37678;DHT22;23517;50.390;8.616;2023-10-19T07:23:31;12.50;1.00
37678;DHT22;23517;50.390;8.616;2023-10-19T07:25:58;12.50;1.00
37678;DHT22;23517;50.390;8.616;2023-10-19T07:28:28;12.50;1.00
37678;DHT22;23517;50.390;8.616;2023-10-19T07:30:55;12.60;1.00
37678;DHT22;23517;50.390;8.616;2023-10-19T07:33:23;12.50;1.00
37678;DHT22;23517;50.390;8.616;2023-10-19T07:35:50;12.50;1.00
37678;DHT22;23517;50.390;8.616;2023-10-19T07:38:26;12.50;1.00
37678;DHT22;23517;50.390;8.616;2023-10-19T07:40:55;12.50;1.00
37678;DHT22;23517;50.390;8.616;2023-10-19T07:43:22;12.40;1.00
37678;DHT22;23517;50.390;8.616;2023-10-19T07:45:49;12.40;1.00
37678;DHT22;23517;50.390;8.616;2023-10-19T07:48:17;12.50;1.00
37678;DHT22;23517;50.390;8.616;2023-10-19T07:50:44;12.40;1.00
37678;DHT22;23517;50.390;8.616;2023-10-19T07:53:11;12.30;1.00
37678;DHT22;23517;50.390;8.616;2023-10-19T07:55:38;12.30;1.00
37678;DHT22;23517;50.390;8.616;2023-10-19T07:58:06;12.40;1.00
37678;DHT22;23517;50.390;8.616;2023-10-19T08:00:33;12.40;1.00
37678;DHT22;23517;50.390;8.616;2023-10-19T08:03:03;12.40;1.00
37678;DHT22;23517;50.390;8.616;2023-10-19T08:05:32;12.60;1.00
37678;DHT22;23517;50.390;8.616;2023-10-19T08:08:02;12.80;1.00
37678;DHT22;23517;50.390;8.616;2023-10-19T08:10:31;12.90;1.00
37678;DHT22;23517;50.390;8.616;2023-10-19T08:12:58;13.10;1.00
37678;DHT22;23517;50.390;8.616;2023-10-19T08:15:26;13.20;1.00
37678;DHT22;23517;50.390;8.616;2023-10-19T08:17:55;13.20;1.00
37678;DHT22;23517;50.390;8.616;2023-10-19T08:20:22;13.20;1.00
37678;DHT22;23517;50.390;8.616;2023-10-19T08:22:59;13.20;1.00
37678;DHT22;23517;50.390;8.616;2023-10-19T08:25:28;13.20;1.00
37678;DHT22;23517;50.390;8.616;2023-10-19T08:28:13;13.40;1.00
37678;DHT22;23517;50.390;8.616;2023-10-19T08:30:41;13.60;1.00
37678;DHT22;23517;50.390;8.616;2023-10-19T08:33:08;13.70;1.00
37678;DHT22;23517;50.390;8.616;2023-10-19T08:35:35;13.80;1.00
37678;DHT22;23517;50.390;8.616;2023-10-19T08:38:02;13.80;1.00
37678;DHT22;23517;50.390;8.616;2023-10-19T08:40:36;14.00;1.00
37678;DHT22;23517;50.390;8.616;2023-10-19T08:43:04;14.30;1.00
37678;DHT22;23517;50.390;8.616;2023-10-19T08:45:33;14.60;1.00
37678;DHT22;23517;50.390;8.616;2023-10-19T08:48:01;14.80;99.90
37678;DHT22;23517;50.390;8.616;2023-10-19T08:50:33;14.90;99.90
37678;DHT22;23517;50.390;8.616;2023-10-19T08:53:01;14.90;81.30
37678;DHT22;23517;50.390;8.616;2023-10-19T08:55:30;15.10;88.20
37678;DHT22;23517;50.390;8.616;2023-10-19T08:58:15;15.10;1.00
37678;DHT22;23517;50.390;8.616;2023-10-19T09:00:50;15.20;1.00
37678;DHT22;23517;50.390;8.616;2023-10-19T09:03:22;15.20;41.30
37678;DHT22;23517;50.390;8.616;2023-10-19T09:05:51;15.40;1.00
37678;DHT22;23517;50.390;8.616;2023-10-19T09:08:18;15.50;1.00
37678;DHT22;23517;50.390;8.616;2023-10-19T09:10:47;15.40;1.00
37678;DHT22;23517;50.390;8.616;2023-10-19T09:13:15;15.40;22.00
37678;DHT22;23517;50.390;8.616;2023-10-19T09:15:47;15.50;1.00
37678;DHT22;23517;50.390;8.616;2023-10-19T09:18:22;15.70;18.00
37678;DHT22;23517;50.390;8.616;2023-10-19T09:20:52;16.00;99.90
37678;DHT22;23517;50.390;8.616;2023-10-19T09:23:24;16.10;99.90
37678;DHT22;23517;50.390;8.616;2023-10-19T09:25:52;16.20;99.90
37678;DHT22;23517;50.390;8.616;2023-10-19T09:28:21;16.30;99.90
37678;DHT22;23517;50.390;8.616;2023-10-19T09:30:52;16.10;1.00
37678;DHT22;23517;50.390;8.616;2023-10-19T09:33:19;16.00;1.00
37678;DHT22;23517;50.390;8.616;2023-10-19T09:35:49;15.80;1.00
37678;DHT22;23517;50.390;8.616;2023-10-19T09:38:18;15.80;1.00
37678;DHT22;23517;50.390;8.616;2023-10-19T09:40:55;15.90;1.00
37678;DHT22;23517;50.390;8.616;2023-10-19T09:43:41;15.80;1.00
37678;DHT22;23517;50.390;8.616;2023-10-19T09:46:12;15.90;1.00
37678;DHT22;23517;50.390;8.616;2023-10-19T09:48:48;16.00;1.00
37678;DHT22;23517;50.390;8.616;2023-10-19T09:51:18;15.80;2.70
37678;DHT22;23517;50.390;8.616;2023-10-19T09:53:49;15.90;1.00
37678;DHT22;23517;50.390;8.616;2023-10-19T09:56:24;15.90;1.00
37678;DHT22;23517;50.390;8.616;2023-10-19T09:58:58;15.80;1.00
37678;DHT22;23517;50.390;8.616;2023-10-19T10:01:27;15.70;8.50
37678;DHT22;23517;50.390;8.616;2023-10-19T10:03:55;15.80;1.00
37678;DHT22;23517;50.390;8.616;2023-10-19T10:06:56;15.70;23.40
37678;DHT22;23517;50.390;8.616;2023-10-19T10:09:18;15.70;1.00
37678;DHT22;23517;50.390;8.616;2023-10-19T10:11:54;15.60;47.00
37678;DHT22;23517;50.390;8.616;2023-10-19T10:14:25;15.80;58.10
37678;DHT22;23517;50.390;8.616;2023-10-19T10:17:04;15.80;1.00
37678;DHT22;23517;50.390;8.616;2023-10-19T10:19:31;15.90;8.70
37678;DHT22;23517;50.390;8.616;2023-10-19T10:22:11;16.00;30.40
37678;DHT22;23517;50.390;8.616;2023-10-19T10:24:54;16.10;1.00
37678;DHT22;23517;50.390;8.616;2023-10-19T10:27:22;16.30;1.00
37678;DHT22;23517;50.390;8.616;2023-10-19T10:30:00;16.50;1.00
37678;DHT22;23517;50.390;8.616;2023-10-19T10:32:46;16.40;99.90
37678;DHT22;23517;50.390;8.616;2023-10-19T10:38:07;16.20;99.90
37678;DHT22;23517;50.390;8.616;2023-10-19T10:40:45;16.20;52.10
37678;DHT22;23517;50.390;8.616;2023-10-19T10:43:14;16.20;31.70
37678;DHT22;23517;50.390;8.616;2023-10-19T10:45:44;16.30;99.90
37678;DHT22;23517;50.390;8.616;2023-10-19T10:48:15;16.50;1.00
37678;DHT22;23517;50.390;8.616;2023-10-19T10:50:43;16.60;99.90
37678;DHT22;23517;50.390;8.616;2023-10-19T10:53:13;16.70;99.90
37678;DHT22;23517;50.390;8.616;2023-10-19T10:55:43;16.70;1.00
37678;DHT22;23517;50.390;8.616;2023-10-19T10:58:17;16.60;1.00
37678;DHT22;23517;50.390;8.616;2023-10-19T11:00:45;16.60;99.90
37678;DHT22;23517;50.390;8.616;2023-10-19T11:03:17;16.60;99.90
37678;DHT22;23517;50.390;8.616;2023-10-19T11:05:44;16.60;99.90
37678;DHT22;23517;50.390;8.616;2023-10-19T11:08:15;16.60;25.90
37678;DHT22;23517;50.390;8.616;2023-10-19T11:10:45;16.60;1.00
37678;DHT22;23517;50.390;8.616;2023-10-19T11:13:22;16.80;1.00
37678;DHT22;23517;50.390;8.616;2023-10-19T11:15:52;17.00;99.90
37678;DHT22;23517;50.390;8.616;2023-10-19T11:18:41;17.20;1.00
37678;DHT22;23517;50.390;8.616;2023-10-19T11:21:13;17.30;1.00
37678;DHT22;23517;50.390;8.616;2023-10-19T11:23:46;17.10;1.00
37678;DHT22;23517;50.390;8.616;2023-10-19T11:26:16;17.10;1.00
37678;DHT22;23517;50.390;8.616;2023-10-19T11:28:45;17.10;1.00
37678;DHT22;23517;50.390;8.616;2023-10-19T11:31:19;17.10;99.90
37678;DHT22;23517;50.390;8.616;2023-10-19T11:33:54;17.10;1.00
37678;DHT22;23517;50.390;8.616;2023-10-19T11:36:24;17.20;99.90
37678;DHT22;23517;50.390;8.616;2023-10-19T11:38:52;17.20;99.90
37678;DHT22;23517;50.390;8.616;2023-10-19T11:41:19;17.10;99.90
37678;DHT22;23517;50.390;8.616;2023-10-19T11:43:47;17.10;1.00
37678;DHT22;23517;50.390;8.616;2023-10-19T11:46:17;16.80;99.90
37678;DHT22;23517;50.390;8.616;2023-10-19T11:48:45;16.70;99.90
37678;DHT22;23517;50.390;8.616;2023-10-19T11:51:11;16.60;1.00
37678;DHT22;23517;50.390;8.616;2023-10-19T11:53:40;16.50;19.40
37678;DHT22;23517;50.390;8.616;2023-10-19T11:56:08;16.30;1.00
37678;DHT22;23517;50.390;8.616;2023-10-19T11:58:38;16.20;99.90
37678;DHT22;23517;50.390;8.616;2023-10-19T12:01:06;16.10;1.00
37678;DHT22;23517;50.390;8.616;2023-10-19T12:03:35;16.00;1.00
37678;DHT22;23517;50.390;8.616;2023-10-19T12:06:04;16.00;32.10
37678;DHT22;23517;50.390;8.616;2023-10-19T12:08:33;16.00;99.90
37678;DHT22;23517;50.390;8.616;2023-10-19T12:11:01;16.00;99.90
37678;DHT22;23517;50.390;8.616;2023-10-19T12:13:28;16.00;99.90
37678;DHT22;23517;50.390;8.616;2023-10-19T12:15:56;15.90;99.90
37678;DHT22;23517;50.390;8.616;2023-10-19T12:18:25;15.90;99.90
37678;DHT22;23517;50.390;8.616;2023-10-19T12:20:55;16.00;99.90
37678;DHT22;23517;50.390;8.616;2023-10-19T12:23:26;16.00;99.90
37678;DHT22;23517;50.390;8.616;2023-10-19T12:25:53;16.00;99.90
37678;DHT22;23517;50.390;8.616;2023-10-19T12:28:23;16.00;1.00
37678;DHT22;23517;50.390;8.616;2023-10-19T12:30:52;16.10;99.90
37678;DHT22;23517;50.390;8.616;2023-10-19T12:33:18;16.20;99.90
37678;DHT22;23517;50.390;8.616;2023-10-19T12:35:46;16.30;1.00
37678;DHT22;23517;50.390;8.616;2023-10-19T12:38:20;16.40;1.00
37678;DHT22;23517;50.390;8.616;2023-10-19T12:40:48;16.50;1.00
37678;DHT22;23517;50.390;8.616;2023-10-19T12:43:17;16.50;1.00
37678;DHT22;23517;50.390;8.616;2023-10-19T12:45:51;16.60;1.00
37678;DHT22;23517;50.390;8.616;2023-10-19T12:48:21;16.60;1.00
37678;DHT22;23517;50.390;8.616;2023-10-19T12:50:48;16.60;1.00
37678;DHT22;23517;50.390;8.616;2023-10-19T12:53:15;16.70;99.90
37678;DHT22;23517;50.390;8.616;2023-10-19T12:55:41;16.70;1.00
37678;DHT22;23517;50.390;8.616;2023-10-19T12:58:10;16.70;99.90
37678;DHT22;23517;50.390;8.616;2023-10-19T13:00:42;16.70;99.90
37678;DHT22;23517;50.390;8.616;2023-10-19T13:03:11;16.80;99.90
37678;DHT22;23517;50.390;8.616;2023-10-19T13:05:40;16.80;99.90
37678;DHT22;23517;50.390;8.616;2023-10-19T13:08:08;16.70;99.90
37678;DHT22;23517;50.390;8.616;2023-10-19T13:10:35;16.50;1.00
37678;DHT22;23517;50.390;8.616;2023-10-19T13:13:08;16.40;99.90
37678;DHT22;23517;50.390;8.616;2023-10-19T13:15:39;16.40;99.90
37678;DHT22;23517;50.390;8.616;2023-10-19T13:18:09;16.40;99.90
37678;DHT22;23517;50.390;8.616;2023-10-19T13:20:37;16.40;99.90
37678;DHT22;23517;50.390;8.616;2023-10-19T13:23:08;16.30;1.00
37678;DHT22;23517;50.390;8.616;2023-10-19T13:25:39;16.30;12.70
37678;DHT22;23517;50.390;8.616;2023-10-19T13:28:09;16.30;1.00
37678;DHT22;23517;50.390;8.616;2023-10-19T13:30:37;16.20;99.90
37678;DHT22;23517;50.390;8.616;2023-10-19T13:33:10;16.20;99.90
37678;DHT22;23517;50.390;8.616;2023-10-19T13:35:38;16.20;99.90
37678;DHT22;23517;50.390;8.616;2023-10-19T13:38:07;16.20;99.90
37678;DHT22;23517;50.390;8.616;2023-10-19T13:40:35;16.10;1.00
37678;DHT22;23517;50.390;8.616;2023-10-19T13:43:03;16.10;28.10
37678;DHT22;23517;50.390;8.616;2023-10-19T13:45:37;16.10;99.90
37678;DHT22;23517;50.390;8.616;2023-10-19T13:48:06;16.10;99.90
37678;DHT22;23517;50.390;8.616;2023-10-19T13:50:34;16.10;99.90
37678;DHT22;23517;50.390;8.616;2023-10-19T13:53:01;16.20;99.90
37678;DHT22;23517;50.390;8.616;2023-10-19T13:55:31;16.10;1.00
37678;DHT22;23517;50.390;8.616;2023-10-19T13:57:58;16.20;1.00
37678;DHT22;23517;50.390;8.616;2023-10-19T14:00:24;16.20;1.00
37678;DHT22;23517;50.390;8.616;2023-10-19T14:02:57;16.30;99.90
37678;DHT22;23517;50.390;8.616;2023-10-19T14:05:25;16.30;99.90
37678;DHT22;23517;50.390;8.616;2023-10-19T14:07:53;16.30;99.90
37678;DHT22;23517;50.390;8.616;2023-10-19T14:10:21;16.20;1.00
37678;DHT22;23517;50.390;8.616;2023-10-19T14:12:48;16.20;1.00
37678;DHT22;23517;50.390;8.616;2023-10-19T14:15:17;16.20;99.90
37678;DHT22;23517;50.390;8.616;2023-10-19T14:17:47;16.20;99.90
37678;DHT22;23517;50.390;8.616;2023-10-19T14:20:15;16.20;99.90
37678;DHT22;23517;50.390;8.616;2023-10-19T14:22:45;16.20;99.90
37678;DHT22;23517;50.390;8.616;2023-10-19T14:25:15;16.10;99.90
37678;DHT22;23517;50.390;8.616;2023-10-19T14:27:45;16.10;99.90
37678;DHT22;23517;50.390;8.616;2023-10-19T14:30:14;16.00;99.90
37678;DHT22;23517;50.390;8.616;2023-10-19T14:32:44;16.00;1.00
37678;DHT22;23517;50.390;8.616;2023-10-19T14:35:12;15.90;99.90
37678;DHT22;23517;50.390;8.616;2023-10-19T14:37:43;15.90;1.00
37678;DHT22;23517;50.390;8.616;2023-10-19T14:40:19;15.80;1.00
37678;DHT22;23517;50.390;8.616;2023-10-19T14:42:52;15.90;1.00
37678;DHT22;23517;50.390;8.616;2023-10-19T14:45:25;15.80;30.20
37678;DHT22;23517;50.390;8.616;2023-10-19T14:47:54;15.80;47.50
37678;DHT22;23517;50.390;8.616;2023-10-19T14:50:31;15.80;99.90
37678;DHT22;23517;50.390;8.616;2023-10-19T14:52:58;15.80;99.90
37678;DHT22;23517;50.390;8.616;2023-10-19T14:55:25;15.80;99.90
37678;DHT22;23517;50.390;8.616;2023-10-19T14:57:54;15.70;99.90
37678;DHT22;23517;50.390;8.616;2023-10-19T15:00:22;15.70;99.90
37678;DHT22;23517;50.390;8.616;2023-10-19T15:02:53;15.70;99.90
37678;DHT22;23517;50.390;8.616;2023-10-19T15:05:28;15.70;99.90
37678;DHT22;23517;50.390;8.616;2023-10-19T15:07:55;15.70;99.90
37678;DHT22;23517;50.390;8.616;2023-10-19T15:10:24;15.70;99.90
37678;DHT22;23517;50.390;8.616;2023-10-19T15:13:02;15.70;99.90
37678;DHT22;23517;50.390;8.616;2023-10-19T15:15:31;15.60;99.90
37678;DHT22;23517;50.390;8.616;2023-10-19T15:17:58;15.60;1.00
37678;DHT22;23517;50.390;8.616;2023-10-19T15:20:26;15.60;1.00
37678;DHT22;23517;50.390;8.616;2023-10-19T15:22:54;15.60;1.00
37678;DHT22;23517;50.390;8.616;2023-10-19T15:25:22;15.60;1.00
37678;DHT22;23517;50.390;8.616;2023-10-19T15:27:53;15.50;1.00
37678;DHT22;23517;50.390;8.616;2023-10-19T15:30:20;15.50;1.00
37678;DHT22;23517;50.390;8.616;2023-10-19T15:32:48;15.40;1.00
37678;DHT22;23517;50.390;8.616;2023-10-19T15:35:17;15.30;1.00
37678;DHT22;23517;50.390;8.616;2023-10-19T15:37:50;15.20;1.00
37678;DHT22;23517;50.390;8.616;2023-10-19T15:40:21;15.10;1.00
37678;DHT22;23517;50.390;8.616;2023-10-19T15:42:50;15.10;1.00
37678;DHT22;23517;50.390;8.616;2023-10-19T15:45:19;15.00;1.00
37678;DHT22;23517;50.390;8.616;2023-10-19T15:47:46;15.00;1.00
37678;DHT22;23517;50.390;8.616;2023-10-19T15:50:15;14.90;1.00
37678;DHT22;23517;50.390;8.616;2023-10-19T15:52:43;14.90;1.00
37678;DHT22;23517;50.390;8.616;2023-10-19T15:55:14;14.90;1.00
37678;DHT22;23517;50.390;8.616;2023-10-19T15:57:42;14.90;1.00
37678;DHT22;23517;50.390;8.616;2023-10-19T16:00:10;14.80;1.00
37678;DHT22;23517;50.390;8.616;2023-10-19T16:02:42;14.90;1.00
37678;DHT22;23517;50.390;8.616;2023-10-19T16:05:11;14.80;1.00
37678;DHT22;23517;50.390;8.616;2023-10-19T16:07:42;14.80;1.00
37678;DHT22;23517;50.390;8.616;2023-10-19T16:10:09;14.80;1.00